Lake George, Colorado
Current Conditions -  °F | °C
As of 6:14 PM on Sunday 21 Dec 2014 (Local Time) from K4BM Reporting Station
Moderate Snow Moderate Snow  
Wind Chill: 11°   Ceiling: 200
Heat Index: 23°   Visibility: 0.5mi
Dew Point: 21°   Wind: 13mph
Humidity: 93%   Direction: 280°W
Pressure: 29.73"   Gusts: 22mph
Location:  38.98°N, 105.35°W
Report Text: K4BM 220114Z AUTO 28011G19KT 1/2SM SN OVC002 M05/M06 A2973 RMK AO2
Loading
Personal Weather Stations






























Interactive Weather Map New forecast layout! Learn more

10-Day Weather Forecast

Advertisements
Track Severe Weather on mobile